Flight Track Log - Related Links

Times and Time Zones

All times are in EDT time to prevent confusion due to time zone crossing. See the UAL582 flight status page for this flight to view local times or setup timezone preferences in your user account.


Time Position Orientation Groundspeed Altitude Reporting Facility
EDT Latitude Longitude Course Direction KTS MPH feet Rate Location/Type
Mon 05:15:54 PM 43.6500 -79.6167 308° West 170 196 1,300  Level Toronto Center
Mon 05:16:54 PM 43.6167 -79.6500 216° Southwest 200 230 3,600 2,550 Climbing Toronto Center
Mon 05:17:54 PM 43.5833 -79.7500 245° Southwest 250 288 6,400 3,450 Climbing Toronto Center
Mon 05:18:00 PM 43.6145 -80.0091 277° West  Level Estimated
Mon 05:18:54 PM 43.6000 -79.8333 285° West 270 311 10,500  Level Toronto Center
Mon 05:19:00 PM 43.5933 -80.1350 277° West  Level Estimated
Mon 05:19:54 PM 43.6167 -79.9500 281° West 330 380 12,500  Level Toronto Center
Mon 05:20:00 PM 43.5720 -80.2609 270° West  Level Estimated
Mon 05:20:54 PM 43.6500 -80.1000 287° West 390 449 15,200  Level Toronto Center
Mon 05:21:00 PM 43.6293 -80.3633 308° West  Level FlightAware Approximate
Mon 05:21:54 PM 43.6833 -80.2333 289° West 410 472 18,100  Level Toronto Center
Mon 05:22:54 PM 43.7167 -80.4000 286° West 420 483 21,400 2,650 Climbing Toronto Center
Mon 05:23:54 PM 43.7333 -80.5500 279° West 430 495 23,400 2,250 Climbing Toronto Center
Mon 05:24:54 PM 43.7000 -80.7333 256° West 460 529 25,900 2,150 Climbing Toronto Center
Mon 05:25:54 PM 43.6500 -80.9000 248° West 460 529 27,700 1,300 Climbing Toronto Center
Mon 05:26:54 PM 43.6167 -81.0667 255° West 450 518 28,500 1,000 Climbing Toronto Center
Mon 05:27:54 PM 43.5833 -81.2500 256° West 450 518 29,700 1,150 Climbing Toronto Center
Mon 05:28:54 PM 43.5500 -81.3833 251° West 450 518 30,800 1,200 Climbing Toronto Center
Mon 05:29:54 PM 43.5167 -81.5667 256° West 450 518 32,100 1,500 Climbing Toronto Center
Mon 05:30:54 PM 43.4500 -81.7000 235° Southwest 440 506 33,800 1,300 Climbing Toronto Center
Mon 05:31:54 PM 43.3333 -81.7833 207° Southwest 440 506 34,700 1,200 Climbing Toronto Center
Mon 05:32:54 PM 43.2333 -81.8500 206° Southwest 440 506 36,200 1,050 Climbing Toronto Center
Mon 05:33:54 PM 43.1167 -81.9333 208° Southwest 440 506 36,800 600 Climbing Toronto Center
Mon 05:34:54 PM 43.0167 -82.0333 216° Southwest 440 506 37,400 500 Climbing Toronto Center
Mon 05:35:54 PM 42.9500 -82.1667 236° Southwest 430 495 37,800 300 Climbing Toronto Center
Mon 05:36:54 PM 42.9500 -82.3167 270° West 420 483 38,000 100 Climbing Toronto Center
Mon 05:37:54 PM 42.9667 -82.4833 278° West 430 495 38,000  Level Toronto Center
Mon 05:38:54 PM 42.9500 -82.6667 263° West 430 495 38,000  Level Toronto Center
Mon 05:39:54 PM 42.9500 -82.8167 270° West 430 495 38,000 -250 Level Toronto Center
Mon 05:40:54 PM 42.9500 -82.9833 270° West 430 495 37,500 -667 Descending Toronto Center
Mon 05:42:00 PM 42.9692 -83.1539 279° West 437 503 36,600 -857 Descending Cleveland Center
Mon 05:43:00 PM 42.9697 -83.3100 270° West 437 503 35,700 -950 Descending Cleveland Center
Mon 05:44:00 PM 42.9681 -83.4717 269° West 437 503 34,700 -1,000 Descending Cleveland Center
Mon 05:45:00 PM 42.9658 -83.6361 269° West 432 497 33,700 -950 Descending Cleveland Center
Mon 05:46:00 PM 42.9636 -83.7950 269° West 432 497 32,800 -850 Descending Cleveland Center
Mon 05:47:00 PM 42.9467 -83.9531 262° West 432 497 32,000 -400 Descending Cleveland Center
Mon 05:48:00 PM 42.9314 -84.1167 263° West 432 497 32,000  Level Cleveland Center
Mon 05:49:00 PM 42.9139 -84.2744 261° West 432 497 32,000  Level Cleveland Center
Mon 05:49:59 PM 42.8992 -84.4397 263° West 432 497 32,000  Level Chicago Center
Mon 05:51:02 PM 42.8822 -84.6011 262° West 431 496 32,000  Level Chicago Center
Mon 05:52:04 PM 42.8653 -84.7619 262° West 430 495 32,000  Level Chicago Center
Mon 05:53:06 PM 42.8489 -84.9250 262° West 433 498 32,000 -97 Level Chicago Center
Mon 05:54:08 PM 42.8306 -85.0869 261° West 434 499 31,800 -1,645 Descending Chicago Center
Mon 05:55:10 PM 42.8103 -85.2803 262° West 431 496 28,600 -2,806 Descending Chicago Center
Mon 05:56:12 PM 42.7917 -85.4425 261° West 432 497 26,000 -1,839 Descending Chicago Center
Mon 05:57:14 PM 42.7683 -85.5997 259° West 426 490 24,800 -1,113 Descending Chicago Center
Mon 05:58:16 PM 42.7403 -85.7553 256° West 422 486 23,700 -1,065 Descending Chicago Center
Mon 05:59:18 PM 42.7122 -85.9075 256° West 415 478 22,600 -1,065 Descending Chicago Center
Mon 06:00:20 PM 42.6850 -86.0572 256° West 407 468 21,500 -1,008 Descending Chicago Center
Mon 06:01:23 PM 42.6578 -86.2050 256° West 402 463 20,500 -1,488 Descending Chicago Center
Mon 06:02:25 PM 42.6264 -86.3747 256° West 387 445 18,400 -2,032 Descending Chicago Center
Mon 06:03:27 PM 42.6014 -86.5125 256° West 379 436 16,300 -2,032 Descending Chicago Center
Mon 06:04:29 PM 42.5767 -86.6414 255° West 359 413 14,200 -1,210 Descending Chicago Center
Mon 06:05:31 PM 42.5503 -86.7706 255° West 357 411 13,800 -1,306 Descending Chicago Center
Mon 06:06:33 PM 42.5147 -86.8939 249° West 353 406 11,500 -1,790 Descending Chicago Center
Mon 06:07:35 PM 42.4833 -87.0133 250° West 341 392 10,100 -1,210 Descending Chicago Center
Mon 06:08:37 PM 42.4503 -87.1328 249° West 284 327 9,000 -581 Descending Chicago Center
Mon 06:09:39 PM 42.4219 -87.2289 248° West 277 319 8,900 -774 Descending Chicago Center
Mon 06:10:41 PM 42.3903 -87.3219 245° Southwest 274 315 7,400 -919 Descending Chicago Center
Mon 06:11:43 PM 42.3583 -87.4231 247° West 272 313 7,000 -194 Descending Chicago Center
Mon 06:12:45 PM 42.3275 -87.5156 246° West 271 312 7,000 -384 Level Chicago Center
Mon 06:13:48 PM 42.2753 -87.5886 226° Southwest 278 320 6,200 -960 Descending Chicago Center
Mon 06:14:50 PM 42.2189 -87.6522 220° Southwest 269 310 5,000 -823 Descending Chicago Center
Mon 06:15:52 PM 42.1536 -87.7258 220° Southwest 258 297 4,500 -835 Descending Chicago Center
Mon 06:16:45 PM 42.1167 -87.7667 219° Southwest 216 249 3,400 -1,062 Descending Chicago TRACON
Mon 06:17:45 PM 42.0667 -87.8167 217° Southwest 188 216 2,500 -850 Descending Chicago TRACON
Mon 06:18:45 PM 42.0333 -87.8500 217° Southwest 142 163 1,700 -750 Descending Chicago TRACON
Mon 06:19:45 PM 42.0167 -87.8833 236° Southwest 131 151 1,000 -700 Descending Chicago TRACON

Login

Don't have an account? Register now (free) for customized features, flight alerts, and more!